createdAt,value
2019-01-23T00:00:38.693Z,77.14
2019-01-23T00:03:08.178Z,76.81
2019-01-23T00:05:37.614Z,76.62
2019-01-23T00:08:07.378Z,76.37
2019-01-23T00:10:36.614Z,76.17
2019-01-23T00:13:05.961Z,75.70
2019-01-23T00:15:35.230Z,75.61
2019-01-23T00:18:05.030Z,75.36
2019-01-23T00:20:34.369Z,75.13
2019-01-23T00:23:03.661Z,74.98
2019-01-23T00:25:32.974Z,75.02
2019-01-23T00:28:02.287Z,75.06
2019-01-23T00:30:31.556Z,75.09
2019-01-23T00:33:00.836Z,74.89
2019-01-23T00:35:30.124Z,74.65
2019-01-23T00:37:59.427Z,74.59
2019-01-23T00:40:28.681Z,74.82
2019-01-23T00:42:58.002Z,74.76
2019-01-23T00:45:27.357Z,74.66
2019-01-23T00:47:56.762Z,74.36
2019-01-23T00:50:26.170Z,74.66
2019-01-23T00:52:55.421Z,74.84
2019-01-23T00:55:24.715Z,74.77
2019-01-23T00:57:54.029Z,74.75
2019-01-23T01:00:25.275Z,74.61
2019-01-23T01:02:54.886Z,74.68
2019-01-23T01:05:24.579Z,74.95
2019-01-23T01:07:53.853Z,74.91
2019-01-23T01:10:23.522Z,75.12
2019-01-23T01:12:52.820Z,74.96
2019-01-23T01:15:22.105Z,74.89
2019-01-23T01:17:51.411Z,75.01
2019-01-23T01:20:21.069Z,75.20
2019-01-23T01:22:50.383Z,75.21
2019-01-23T01:25:19.676Z,75.31
2019-01-23T01:27:49.206Z,75.11
2019-01-23T01:30:23.223Z,75.13
2019-01-23T01:32:52.628Z,75.02
2019-01-23T01:35:21.952Z,75.13
2019-01-23T01:37:51.357Z,75.27
2019-01-23T01:40:20.918Z,75.19
2019-01-23T01:42:50.169Z,75.09
2019-01-23T01:45:19.545Z,75.25
2019-01-23T01:47:48.805Z,75.35
2019-01-23T01:50:20.140Z,75.36
2019-01-23T01:52:49.537Z,75.41
2019-01-23T01:55:18.851Z,75.10
2019-01-23T01:57:48.236Z,75.40
2019-01-23T02:00:22.572Z,75.32
2019-01-23T02:02:52.113Z,75.50
2019-01-23T02:05:21.378Z,75.58
2019-01-23T02:07:51.503Z,75.66
2019-01-23T02:10:22.012Z,75.65
2019-01-23T02:12:51.616Z,75.72
2019-01-23T02:15:20.958Z,75.76
2019-01-23T02:17:50.323Z,75.67
2019-01-23T02:20:24.957Z,75.67
2019-01-23T02:22:54.286Z,75.69
2019-01-23T02:25:23.891Z,75.79
2019-01-23T02:27:53.328Z,75.96
2019-01-23T02:30:24.676Z,75.88
2019-01-23T02:32:53.945Z,75.79
2019-01-23T02:35:23.047Z,75.81
2019-01-23T02:37:52.342Z,75.74
2019-01-23T02:40:24.068Z,75.72
2019-01-23T02:42:53.744Z,76.02
2019-01-23T02:45:23.614Z,76.26
2019-01-23T02:47:54.497Z,76.13
2019-01-23T02:50:23.799Z,76.29
2019-01-23T02:52:53.050Z,76.00
2019-01-23T02:55:22.361Z,75.79
2019-01-23T02:57:51.636Z,75.94
2019-01-23T03:00:21.367Z,75.92
2019-01-23T03:02:51.582Z,75.85
2019-01-23T03:05:22.020Z,75.98
2019-01-23T03:07:51.314Z,76.26
2019-01-23T03:10:23.792Z,76.17
2019-01-23T03:12:53.067Z,76.38
2019-01-23T03:15:22.345Z,76.49
2019-01-23T03:17:51.642Z,76.30
2019-01-23T03:20:21.596Z,76.14
2019-01-23T03:22:50.894Z,76.15
2019-01-23T03:25:20.586Z,76.11
2019-01-23T03:27:49.905Z,76.15
2019-01-23T03:30:23.663Z,76.37
2019-01-23T03:32:52.873Z,76.43
2019-01-23T03:35:22.145Z,76.27
2019-01-23T03:37:51.412Z,76.20
2019-01-23T03:40:22.099Z,76.13
2019-01-23T03:42:51.370Z,76.15
2019-01-23T03:45:21.255Z,76.11
2019-01-23T03:47:50.534Z,75.98
2019-01-23T03:50:21.266Z,75.82
2019-01-23T03:52:50.490Z,75.65
2019-01-23T03:55:20.150Z,75.74
2019-01-23T03:57:49.384Z,75.55
2019-01-23T04:00:20.690Z,75.66
2019-01-23T04:02:51.103Z,75.73
2019-01-23T04:05:21.076Z,75.83
2019-01-23T04:07:50.322Z,76.03
2019-01-23T04:10:19.619Z,76.00
2019-01-23T04:12:49.314Z,76.21
2019-01-23T04:15:18.777Z,76.29
2019-01-23T04:17:48.059Z,76.21
2019-01-23T04:20:19.506Z,76.08
2019-01-23T04:22:48.895Z,76.27
2019-01-23T04:25:18.207Z,76.46
2019-01-23T04:27:47.443Z,76.49
2019-01-23T04:30:19.529Z,76.42
2019-01-23T04:32:48.800Z,76.11
2019-01-23T04:35:18.344Z,76.06
2019-01-23T04:37:47.709Z,76.31
2019-01-23T04:40:16.940Z,76.46
2019-01-23T04:42:46.217Z,76.40
2019-01-23T04:45:16.186Z,76.64
2019-01-23T04:47:45.477Z,76.63
2019-01-23T04:50:15.862Z,76.70
2019-01-23T04:53:07.033Z,76.52
2019-01-23T04:55:39.110Z,76.40
2019-01-23T04:58:08.374Z,76.13
2019-01-23T05:00:37.619Z,76.12
2019-01-23T05:03:06.876Z,76.27
2019-01-23T05:05:36.103Z,76.38
2019-01-23T05:08:05.382Z,76.24
2019-01-23T05:10:34.646Z,76.22
2019-01-23T05:13:03.907Z,76.15
2019-01-23T05:15:33.136Z,75.94
2019-01-23T05:18:02.381Z,76.03
2019-01-23T05:20:31.633Z,75.98
2019-01-23T05:23:00.876Z,75.73
2019-01-23T05:25:30.430Z,75.46
2019-01-23T05:27:59.705Z,75.27
2019-01-23T05:30:28.946Z,74.96
2019-01-23T05:32:58.207Z,74.98
2019-01-23T05:35:27.464Z,74.90
2019-01-23T05:37:56.724Z,75.14
2019-01-23T05:40:25.976Z,74.87
2019-01-23T05:42:55.229Z,74.98
2019-01-23T05:45:24.529Z,75.14
2019-01-23T05:47:53.777Z,74.92
2019-01-23T05:50:23.030Z,75.07
2019-01-23T05:52:52.289Z,75.12
2019-01-23T05:55:21.533Z,75.14
2019-01-23T05:57:50.840Z,75.13
2019-01-23T06:00:21.751Z,75.24
2019-01-23T06:02:50.981Z,75.05
2019-01-23T06:05:20.846Z,74.93
2019-01-23T06:07:50.267Z,75.13
2019-01-23T06:10:19.709Z,75.17
2019-01-23T06:12:48.981Z,75.16
2019-01-23T06:15:18.226Z,75.11
2019-01-23T06:17:47.513Z,75.40
2019-01-23T06:20:18.718Z,75.40
2019-01-23T06:22:48.168Z,75.44
2019-01-23T06:25:17.517Z,75.40
2019-01-23T06:27:46.763Z,75.01
2019-01-23T06:30:21.383Z,75.20
2019-01-23T06:32:51.764Z,75.08
2019-01-23T06:35:21.033Z,75.25
2019-01-23T06:37:50.281Z,75.40
2019-01-23T06:40:20.795Z,75.37
2019-01-23T06:42:50.110Z,75.43
2019-01-23T06:45:19.666Z,75.28
2019-01-23T06:47:49.625Z,75.59
2019-01-23T06:50:20.364Z,75.80
2019-01-23T06:52:49.589Z,75.79
2019-01-23T06:55:20.265Z,75.46
2019-01-23T06:57:49.594Z,75.22
2019-01-23T07:00:23.438Z,75.27
2019-01-23T07:02:52.895Z,75.28
2019-01-23T07:05:22.446Z,75.48
2019-01-23T07:07:51.688Z,75.17
2019-01-23T07:10:23.083Z,74.97
2019-01-23T07:12:52.775Z,74.79
2019-01-23T07:15:22.070Z,74.80
2019-01-23T07:17:52.098Z,74.79
2019-01-23T07:20:23.218Z,74.58
2019-01-23T07:22:52.461Z,74.41
2019-01-23T07:25:21.810Z,74.45
2019-01-23T07:27:51.049Z,74.19
2019-01-23T07:30:28.333Z,73.96
2019-01-23T07:32:57.567Z,74.00
2019-01-23T07:35:26.924Z,73.71
2019-01-23T07:37:56.165Z,73.62
2019-01-23T07:40:25.433Z,73.49
2019-01-23T07:42:54.684Z,72.99
2019-01-23T07:45:25.081Z,72.91
2019-01-23T07:47:54.322Z,72.53
2019-01-23T07:50:23.578Z,72.72
2019-01-23T07:52:52.813Z,72.61
2019-01-23T07:55:22.172Z,72.30
2019-01-23T07:57:51.405Z,72.15
2019-01-23T08:00:31.045Z,72.00
2019-01-23T08:02:55.868Z,72.14
2019-01-23T08:05:27.009Z,72.08
2019-01-23T08:07:56.322Z,71.75
2019-01-23T08:10:25.686Z,71.76
2019-01-23T08:12:55.840Z,71.81
2019-01-23T08:15:30.714Z,74.13
2019-01-23T08:17:59.991Z,72.49
2019-01-23T08:20:29.447Z,71.46
2019-01-23T08:22:59.181Z,70.09
2019-01-23T08:25:28.767Z,69.67
2019-01-23T08:27:58.238Z,69.20
2019-01-23T08:30:27.702Z,69.37
2019-01-23T08:32:56.930Z,68.41
2019-01-23T08:35:27.502Z,68.21
2019-01-23T08:37:56.820Z,68.07
2019-01-23T08:40:26.064Z,67.51
2019-01-23T08:42:55.289Z,67.41
2019-01-23T08:45:24.573Z,67.19
2019-01-23T08:47:53.819Z,67.31
2019-01-23T08:50:48.509Z,66.82
2019-01-23T08:53:17.735Z,67.11
2019-01-23T08:55:53.245Z,66.90
2019-01-23T08:58:17.927Z,67.06
2019-01-23T09:00:47.572Z,67.74
2019-01-23T09:03:16.814Z,68.61
2019-01-23T09:05:46.078Z,70.03
2019-01-23T09:08:15.291Z,69.82
2019-01-23T09:10:44.522Z,70.11
2019-01-23T09:13:13.779Z,70.18
2019-01-23T09:15:43.014Z,70.07
2019-01-23T09:18:12.458Z,71.00
2019-01-23T09:20:41.816Z,70.88
2019-01-23T09:23:11.074Z,69.57
2019-01-23T09:25:40.290Z,68.86
2019-01-23T09:28:09.542Z,67.85
2019-01-23T09:31:18.305Z,66.99
2019-01-23T09:34:22.246Z,66.67
2019-01-23T09:37:01.975Z,64.53
2019-01-23T09:40:16.114Z,64.29
2019-01-23T09:43:16.872Z,64.21
2019-01-23T09:46:17.410Z,64.28
2019-01-23T09:49:06.287Z,63.87
2019-01-23T09:52:17.897Z,64.29
2019-01-23T09:54:47.134Z,65.07
2019-01-23T09:57:16.550Z,65.71
2019-01-23T09:59:45.899Z,66.10
2019-01-23T10:02:15.133Z,65.13
2019-01-23T10:04:44.405Z,63.74
2019-01-23T10:07:13.629Z,63.12
2019-01-23T10:09:42.885Z,64.34
2019-01-23T10:12:12.097Z,66.44
2019-01-23T10:14:41.373Z,64.18
2019-01-23T10:17:10.606Z,65.48
2019-01-23T10:19:39.711Z,64.45
2019-01-23T10:22:08.960Z,63.13
2019-01-23T10:24:38.218Z,63.64
2019-01-23T10:27:07.443Z,62.13
2019-01-23T10:29:36.714Z,61.88
2019-01-23T10:32:05.968Z,61.87
2019-01-23T10:34:37.674Z,60.94
2019-01-23T10:37:08.120Z,62.80
2019-01-23T10:39:37.396Z,64.19
2019-01-23T10:42:06.739Z,67.76
2019-01-23T10:44:36.403Z,66.91
2019-01-23T10:47:05.642Z,67.70
2019-01-23T10:49:35.199Z,68.04
2019-01-23T10:52:04.813Z,67.89
2019-01-23T10:54:34.084Z,66.06
2019-01-23T10:57:03.791Z,66.20
2019-01-23T10:59:32.844Z,65.89
2019-01-23T11:02:02.274Z,66.11
2019-01-23T11:04:31.569Z,65.61
2019-01-23T11:07:00.838Z,66.24
2019-01-23T11:09:30.095Z,66.52
2019-01-23T11:11:59.321Z,65.77
2019-01-23T11:14:28.591Z,65.41
2019-01-23T11:16:57.831Z,67.31
2019-01-23T11:19:27.087Z,66.41
2019-01-23T11:21:56.314Z,67.08
2019-01-23T11:24:26.039Z,65.53
2019-01-23T11:26:55.293Z,66.90
2019-01-23T11:29:24.541Z,68.58
2019-01-23T11:31:53.770Z,70.34
2019-01-23T11:34:23.032Z,69.74
2019-01-23T11:36:52.280Z,71.38
2019-01-23T11:39:21.511Z,72.61
2019-01-23T11:41:50.768Z,71.32
2019-01-23T11:44:20.005Z,71.63
2019-01-23T11:46:49.346Z,71.26
2019-01-23T11:49:18.576Z,67.85
2019-01-23T11:51:47.841Z,67.96
2019-01-23T11:54:17.076Z,67.86
2019-01-23T11:56:46.428Z,69.36
2019-01-23T11:59:15.672Z,70.43
2019-01-23T12:01:45.241Z,69.39
2019-01-23T12:04:14.569Z,68.92
2019-01-23T12:06:43.818Z,68.39
2019-01-23T12:09:13.050Z,67.05
2019-01-23T12:11:42.736Z,67.46
2019-01-23T12:14:12.069Z,67.10
2019-01-23T12:16:41.525Z,67.29
2019-01-23T12:19:15.195Z,65.99
2019-01-23T12:21:44.836Z,66.07
2019-01-23T12:24:14.094Z,67.55
2019-01-23T12:26:43.381Z,68.01
2019-01-23T12:29:12.736Z,69.41
2019-01-23T12:31:43.018Z,66.48
2019-01-23T12:34:12.508Z,67.05
2019-01-23T12:36:42.032Z,67.00
2019-01-23T12:39:11.738Z,68.34
2019-01-23T12:41:41.086Z,69.17
2019-01-23T12:44:10.970Z,67.87
2019-01-23T12:46:40.282Z,67.67
2019-01-23T12:49:11.895Z,66.61
2019-01-23T12:51:41.137Z,65.92
2019-01-23T12:54:10.541Z,65.33
2019-01-23T12:56:39.930Z,66.17
2019-01-23T12:59:09.657Z,65.30
2019-01-23T13:01:42.134Z,64.17
2019-01-23T13:04:09.949Z,64.75
2019-01-23T13:06:39.238Z,63.65
2019-01-23T13:09:10.031Z,62.32
2019-01-23T13:11:39.603Z,62.73
2019-01-23T13:14:09.026Z,64.93
2019-01-23T13:16:38.312Z,66.35
2019-01-23T13:19:07.609Z,65.36
2019-01-23T13:21:36.874Z,64.88
2019-01-23T13:24:06.302Z,64.91
2019-01-23T13:26:35.607Z,64.16
2019-01-23T13:29:04.867Z,63.86
2019-01-23T13:31:34.774Z,63.77
2019-01-23T13:34:04.120Z,64.37
2019-01-23T13:36:33.352Z,64.89
2019-01-23T13:39:02.690Z,65.18
2019-01-23T13:41:31.933Z,65.18
2019-01-23T13:44:01.195Z,63.65
2019-01-23T13:46:30.946Z,64.22
2019-01-23T13:49:00.190Z,63.82
2019-01-23T13:51:29.418Z,63.76
2019-01-23T13:53:58.672Z,63.23
2019-01-23T13:56:27.907Z,63.54
2019-01-23T13:58:57.213Z,62.56
2019-01-23T14:01:26.440Z,63.68
2019-01-23T14:03:55.701Z,64.23
2019-01-23T14:06:24.975Z,63.96
2019-01-23T14:08:55.130Z,64.57
2019-01-23T14:11:25.502Z,64.39
2019-01-23T14:13:56.632Z,65.54
2019-01-23T14:16:26.597Z,65.96
2019-01-23T14:18:55.812Z,66.68
2019-01-23T14:21:25.058Z,66.56
2019-01-23T14:23:54.288Z,66.93
2019-01-23T14:26:23.542Z,66.56
2019-01-23T14:28:52.778Z,66.98
2019-01-23T14:31:23.726Z,67.87
2019-01-23T14:33:52.964Z,67.61
2019-01-23T14:36:22.201Z,67.35
2019-01-23T14:38:51.445Z,67.88
2019-01-23T14:41:20.780Z,68.47
2019-01-23T14:43:51.111Z,68.97
2019-01-23T14:46:20.423Z,69.94
2019-01-23T14:48:50.630Z,70.42
2019-01-23T14:51:20.087Z,70.88
2019-01-23T14:53:49.365Z,70.93
2019-01-23T14:56:18.621Z,71.65
2019-01-23T14:58:48.257Z,71.84
2019-01-23T15:01:17.502Z,72.37
2019-01-23T15:03:46.751Z,72.79
2019-01-23T15:06:16.055Z,73.23
2019-01-23T15:08:45.371Z,73.24
2019-01-23T15:11:14.948Z,74.02
2019-01-23T15:13:44.163Z,74.34
2019-01-23T15:16:13.426Z,74.33
2019-01-23T15:18:42.999Z,74.27
2019-01-23T15:21:12.316Z,74.87
2019-01-23T15:23:41.545Z,75.10
2019-01-23T15:26:11.204Z,75.75
2019-01-23T15:28:40.440Z,76.03
2019-01-23T15:31:09.703Z,76.52
2019-01-23T15:33:38.942Z,76.92
2019-01-23T15:36:08.801Z,77.76
2019-01-23T15:38:38.028Z,77.87
2019-01-23T15:41:07.780Z,78.21
2019-01-23T15:43:39.316Z,78.14
2019-01-23T15:46:08.601Z,78.24
2019-01-23T15:48:39.331Z,78.15
2019-01-23T15:51:08.622Z,78.58
2019-01-23T15:53:38.349Z,78.89
2019-01-23T15:56:07.620Z,79.25
2019-01-23T15:58:36.844Z,79.45
2019-01-23T16:01:06.468Z,80.07
2019-01-23T16:03:35.756Z,80.20
2019-01-23T16:06:05.703Z,80.24
2019-01-23T16:08:34.959Z,80.30
2019-01-23T16:11:04.287Z,80.45
2019-01-23T16:13:33.560Z,80.73
2019-01-23T16:16:02.856Z,80.92
2019-01-23T16:18:33.559Z,80.97
2019-01-23T16:21:02.813Z,81.18
2019-01-23T16:23:32.080Z,81.24
2019-01-23T16:26:01.355Z,81.34
2019-01-23T16:28:30.678Z,81.66
2019-01-23T16:31:01.119Z,82.01
2019-01-23T16:33:30.410Z,82.40
2019-01-23T16:36:00.872Z,82.33
2019-01-23T16:38:30.133Z,82.11
2019-01-23T16:40:59.511Z,82.65
2019-01-23T16:43:29.058Z,83.16
2019-01-23T16:45:58.492Z,83.34
2019-01-23T16:48:27.861Z,83.83
2019-01-23T16:50:57.075Z,83.93
2019-01-23T16:53:28.120Z,84.03
2019-01-23T16:55:57.395Z,84.15
2019-01-23T16:58:26.674Z,84.35
2019-01-23T17:00:55.925Z,84.45
2019-01-23T17:03:25.221Z,84.59
2019-01-23T17:05:54.490Z,84.42
2019-01-23T17:08:23.771Z,84.30
2019-01-23T17:10:53.035Z,84.54
2019-01-23T17:13:22.593Z,84.35
2019-01-23T17:15:51.851Z,83.96
2019-01-23T17:18:21.111Z,83.92
2019-01-23T17:20:50.678Z,84.31
2019-01-23T17:23:20.248Z,84.66
2019-01-23T17:25:49.493Z,84.51
2019-01-23T17:28:21.772Z,84.52
2019-01-23T17:30:51.003Z,84.54
2019-01-23T17:33:20.250Z,84.69
2019-01-23T17:35:49.480Z,84.84
2019-01-23T17:38:19.968Z,84.89
2019-01-23T17:40:51.617Z,84.68
2019-01-23T17:43:21.157Z,83.92
2019-01-23T17:45:50.432Z,83.55
2019-01-23T17:48:19.689Z,83.26
2019-01-23T17:50:48.969Z,83.96
2019-01-23T17:53:20.361Z,83.71
2019-01-23T17:55:49.602Z,84.05
2019-01-23T17:58:18.885Z,84.19
2019-01-23T18:00:58.919Z,84.20
2019-01-23T18:03:28.188Z,84.61
2019-01-23T18:05:57.406Z,84.78
2019-01-23T18:08:26.677Z,84.74
2019-01-23T18:10:57.388Z,84.78
2019-01-23T18:13:26.851Z,85.20
2019-01-23T18:16:01.323Z,85.24
2019-01-23T18:18:30.594Z,85.05
2019-01-23T18:20:59.836Z,84.80
2019-01-23T18:23:31.593Z,84.55
2019-01-23T18:26:00.650Z,84.46
2019-01-23T18:28:29.894Z,83.79
2019-01-23T18:31:13.268Z,83.91
2019-01-23T18:33:59.830Z,83.65
2019-01-23T18:37:01.161Z,83.89
2019-01-23T18:40:10.644Z,83.80
2019-01-23T18:43:05.483Z,83.72
2019-01-23T18:46:04.655Z,83.66
2019-01-23T18:49:21.336Z,83.63
2019-01-23T18:52:12.325Z,83.69
2019-01-23T18:54:43.076Z,83.12
2019-01-23T18:57:15.647Z,82.55
2019-01-23T18:59:45.263Z,83.07
2019-01-23T19:02:14.768Z,83.16
2019-01-23T19:04:44.372Z,83.25
2019-01-23T19:07:13.989Z,82.96
2019-01-23T19:09:43.225Z,83.16
2019-01-23T19:12:12.692Z,83.26
2019-01-23T19:14:42.281Z,83.31
2019-01-23T19:17:11.547Z,83.23
2019-01-23T19:19:40.826Z,83.09
2019-01-23T19:22:10.103Z,83.08
2019-01-23T19:24:41.612Z,83.01
2019-01-23T19:27:10.982Z,82.82
2019-01-23T19:29:40.225Z,82.65
2019-01-23T19:32:09.478Z,82.41
2019-01-23T19:34:38.732Z,82.20
2019-01-23T19:37:09.206Z,82.17
2019-01-23T19:39:40.913Z,82.28
2019-01-23T19:42:10.285Z,82.14
2019-01-23T19:44:39.901Z,81.89
2019-01-23T19:47:09.190Z,81.63
2019-01-23T19:49:38.489Z,81.79
2019-01-23T19:52:07.769Z,81.79
2019-01-23T19:54:37.000Z,81.79
2019-01-23T19:57:07.680Z,81.60
2019-01-23T19:59:36.909Z,81.50
2019-01-23T20:02:08.678Z,81.00
2019-01-23T20:04:38.688Z,80.90
2019-01-23T20:07:07.945Z,81.07
2019-01-23T20:09:37.488Z,80.99
2019-01-23T20:12:06.926Z,81.05
2019-01-23T20:14:36.462Z,80.85
2019-01-23T20:17:05.729Z,80.44
2019-01-23T20:19:34.957Z,80.04
2019-01-23T20:22:05.955Z,80.07
2019-01-23T20:24:35.468Z,79.57
2019-01-23T20:27:05.253Z,79.26
2019-01-23T20:29:34.485Z,79.24
2019-01-23T20:32:03.744Z,78.97
2019-01-23T20:34:32.974Z,79.12
2019-01-23T20:37:02.227Z,78.82
2019-01-23T20:39:32.071Z,78.70
2019-01-23T20:42:01.335Z,78.28
2019-01-23T20:44:30.567Z,78.83
2019-01-23T20:47:00.110Z,78.23
2019-01-23T20:49:30.374Z,78.83
2019-01-23T20:52:02.040Z,78.99
2019-01-23T20:54:31.293Z,79.30
2019-01-23T20:57:02.006Z,78.75
2019-01-23T20:59:32.596Z,78.73
2019-01-23T21:02:02.242Z,78.77
2019-01-23T21:04:32.180Z,79.12
2019-01-23T21:07:01.421Z,79.70
2019-01-23T21:09:30.675Z,80.34
2019-01-23T21:12:00.218Z,80.61
2019-01-23T21:14:30.312Z,80.91
2019-01-23T21:16:59.541Z,80.72
2019-01-23T21:19:30.684Z,80.67
2019-01-23T21:22:01.002Z,80.52
2019-01-23T21:24:30.571Z,80.39
2019-01-23T21:27:00.893Z,80.28
2019-01-23T21:29:30.173Z,80.29
2019-01-23T21:31:59.405Z,80.20
2019-01-23T21:34:28.673Z,80.59
2019-01-23T21:36:58.210Z,80.85
2019-01-23T21:39:29.759Z,81.04
2019-01-23T21:41:58.990Z,80.98
2019-01-23T21:44:29.350Z,80.96
2019-01-23T21:46:58.894Z,81.01
2019-01-23T21:49:28.142Z,80.72
2019-01-23T21:51:57.360Z,80.62
2019-01-23T21:54:26.900Z,80.61
2019-01-23T21:56:56.371Z,80.74
2019-01-23T21:59:25.898Z,80.78
2019-01-23T22:01:55.125Z,80.94
2019-01-23T22:04:24.386Z,80.95
2019-01-23T22:06:53.614Z,81.11
2019-01-23T22:09:22.864Z,81.21
2019-01-23T22:11:52.087Z,81.22
2019-01-23T22:14:21.353Z,81.08
2019-01-23T22:16:50.586Z,80.71
2019-01-23T22:19:20.153Z,80.93
2019-01-23T22:21:51.846Z,81.02
2019-01-23T22:24:21.098Z,81.19
2019-01-23T22:26:50.335Z,81.33
2019-01-23T22:29:21.605Z,81.35
2019-01-23T22:31:52.003Z,81.17
2019-01-23T22:34:22.357Z,81.12
2019-01-23T22:36:52.894Z,80.84
2019-01-23T22:39:22.166Z,80.93
2019-01-23T22:41:51.401Z,81.01
2019-01-23T22:44:20.653Z,80.91
2019-01-23T22:46:49.909Z,80.95
2019-01-23T22:49:19.165Z,80.88
2019-01-23T22:51:48.397Z,80.93
2019-01-23T22:54:17.954Z,81.08
2019-01-23T22:56:47.182Z,81.08
2019-01-23T22:59:17.274Z,80.98
2019-01-23T23:01:46.729Z,80.86
2019-01-23T23:04:15.953Z,80.66
2019-01-23T23:06:45.208Z,80.54
2019-01-23T23:09:15.261Z,80.65
2019-01-23T23:11:44.514Z,80.60
2019-01-23T23:14:13.769Z,80.60
2019-01-23T23:16:43.019Z,80.76
2019-01-23T23:19:13.625Z,80.74
2019-01-23T23:21:43.215Z,80.53
2019-01-23T23:24:12.803Z,80.62
2019-01-23T23:26:42.042Z,80.77
2019-01-23T23:29:11.524Z,80.91
2019-01-23T23:31:40.773Z,80.54
2019-01-23T23:34:10.292Z,80.57
2019-01-23T23:36:39.739Z,80.61
2019-01-23T23:39:11.165Z,80.52
2019-01-23T23:41:40.732Z,80.57
2019-01-23T23:44:09.964Z,80.57
2019-01-23T23:46:39.242Z,80.45
2019-01-23T23:49:08.749Z,80.64
2019-01-23T23:51:37.994Z,79.97
2019-01-23T23:54:07.327Z,79.73
2019-01-23T23:56:36.914Z,80.19
2019-01-23T23:59:06.153Z,80.75
